createdAt,value
2018-07-01T00:00:23.325Z,0.00
2018-07-01T00:01:23.553Z,0.00
2018-07-01T00:02:23.479Z,0.00
2018-07-01T00:03:23.251Z,0.00
2018-07-01T00:04:23.228Z,0.00
2018-07-01T00:05:23.201Z,0.00
2018-07-01T00:06:23.177Z,0.00
2018-07-01T00:07:23.151Z,0.00
2018-07-01T00:08:23.128Z,0.00
2018-07-01T00:09:23.106Z,0.00
2018-07-01T00:10:23.084Z,0.00
2018-07-01T00:11:23.055Z,0.00
2018-07-01T00:12:23.035Z,0.00
2018-07-01T00:13:23.005Z,0.00
2018-07-01T00:14:23.015Z,0.00
2018-07-01T00:15:22.956Z,0.00
2018-07-01T00:16:22.930Z,0.00
2018-07-01T00:17:22.918Z,0.00
2018-07-01T00:18:22.885Z,0.00
2018-07-01T00:19:22.862Z,0.00
2018-07-01T00:20:22.835Z,0.00
2018-07-01T00:21:22.809Z,0.00
2018-07-01T00:22:22.788Z,0.00
2018-07-01T00:23:22.759Z,0.00
2018-07-01T00:24:22.734Z,0.00
2018-07-01T00:25:22.710Z,0.00
2018-07-01T00:26:22.686Z,0.00
2018-07-01T00:27:22.665Z,0.00
2018-07-01T00:28:22.637Z,0.00
2018-07-01T00:29:22.613Z,0.00
2018-07-01T00:30:22.795Z,0.00
2018-07-01T00:31:22.565Z,0.00
2018-07-01T00:32:22.541Z,0.00
2018-07-01T00:33:22.515Z,0.00
2018-07-01T00:34:22.496Z,0.00
2018-07-01T00:35:22.464Z,0.00
2018-07-01T00:36:22.442Z,0.00
2018-07-01T00:37:22.419Z,0.00
2018-07-01T00:38:22.393Z,0.00
2018-07-01T00:39:22.368Z,0.00
2018-07-01T00:40:22.345Z,0.00
2018-07-01T00:41:22.323Z,0.00
2018-07-01T00:42:22.293Z,0.00
2018-07-01T00:43:22.269Z,0.00
2018-07-01T00:44:22.244Z,0.00
2018-07-01T00:45:22.218Z,0.00
2018-07-01T00:46:22.194Z,0.00
2018-07-01T00:47:22.175Z,0.00
2018-07-01T00:48:22.153Z,0.00
2018-07-01T00:49:22.121Z,0.00
2018-07-01T00:50:22.106Z,0.00
2018-07-01T00:51:22.070Z,0.00
2018-07-01T00:52:22.047Z,0.00
2018-07-01T00:53:22.019Z,0.00
2018-07-01T00:54:21.996Z,0.00
2018-07-01T00:55:21.975Z,0.00
2018-07-01T00:56:21.945Z,0.00
2018-07-01T00:57:21.921Z,0.00
2018-07-01T00:58:21.897Z,0.00
2018-07-01T00:59:21.877Z,0.00
2018-07-01T01:00:21.847Z,0.00
2018-07-01T01:01:21.823Z,0.00
2018-07-01T01:02:21.799Z,0.00
2018-07-01T01:03:21.774Z,0.00
2018-07-01T01:04:21.748Z,0.00
2018-07-01T01:05:21.728Z,0.00
2018-07-01T01:06:21.698Z,0.00
2018-07-01T01:07:21.672Z,0.00
2018-07-01T01:08:21.648Z,0.00
2018-07-01T01:09:21.624Z,0.00
2018-07-01T01:10:21.603Z,0.00
2018-07-01T01:11:21.578Z,0.00
2018-07-01T01:12:21.549Z,0.00
2018-07-01T01:13:21.525Z,0.00
2018-07-01T01:14:21.501Z,0.00
2018-07-01T01:15:21.476Z,0.00
2018-07-01T01:16:21.460Z,0.00
2018-07-01T01:17:21.425Z,0.00
2018-07-01T01:18:21.401Z,0.00
2018-07-01T01:19:21.374Z,0.00
2018-07-01T01:20:21.349Z,0.00
2018-07-01T01:21:21.327Z,0.00
2018-07-01T01:22:21.304Z,0.00
2018-07-01T01:23:21.277Z,0.00
2018-07-01T01:24:21.252Z,0.00
2018-07-01T01:25:21.225Z,0.00
2018-07-01T01:26:21.202Z,0.00
2018-07-01T01:27:21.175Z,0.00
2018-07-01T01:28:21.150Z,0.00
2018-07-01T01:29:21.126Z,0.00
2018-07-01T01:30:21.103Z,0.00
2018-07-01T01:31:21.074Z,0.00
2018-07-01T01:32:21.051Z,0.00
2018-07-01T01:33:21.028Z,0.00
2018-07-01T01:34:21.004Z,0.00
2018-07-01T01:35:20.979Z,0.00
2018-07-01T01:36:20.954Z,0.00
2018-07-01T01:37:20.932Z,0.00
2018-07-01T01:38:20.905Z,0.00
2018-07-01T01:39:20.877Z,0.00
2018-07-01T01:40:20.852Z,0.00
2018-07-01T01:41:20.828Z,0.00
2018-07-01T01:42:20.813Z,0.00
2018-07-01T01:43:20.779Z,0.00
2018-07-01T01:44:20.755Z,0.00
2018-07-01T01:45:20.730Z,0.00
2018-07-01T01:46:20.711Z,0.00
2018-07-01T01:47:20.678Z,0.00
2018-07-01T01:48:20.655Z,0.00
2018-07-01T01:49:20.629Z,0.00
2018-07-01T01:50:20.607Z,0.00
2018-07-01T01:51:20.583Z,0.00
2018-07-01T01:52:20.559Z,0.00
2018-07-01T01:53:20.530Z,0.00
2018-07-01T01:54:20.506Z,4.00
2018-07-01T01:55:20.480Z,4.00
2018-07-01T01:56:20.456Z,4.00
2018-07-01T01:57:20.430Z,0.00
2018-07-01T01:58:20.404Z,0.00
2018-07-01T01:59:20.378Z,0.00
2018-07-01T02:00:20.353Z,4.00
2018-07-01T02:01:20.329Z,4.00
2018-07-01T02:02:20.303Z,4.00
2018-07-01T02:03:20.278Z,4.00
2018-07-01T02:04:20.254Z,4.00
2018-07-01T02:05:20.238Z,4.00
2018-07-01T02:06:20.208Z,4.00
2018-07-01T02:07:20.384Z,8.00
2018-07-01T02:08:20.160Z,4.00
2018-07-01T02:09:20.332Z,8.00
2018-07-01T02:10:20.105Z,8.00
2018-07-01T02:11:20.078Z,8.00
2018-07-01T02:12:20.058Z,12.00
2018-07-01T02:13:20.031Z,12.00
2018-07-01T02:14:20.007Z,12.00
2018-07-01T02:15:19.982Z,12.00
2018-07-01T02:16:19.956Z,16.00
2018-07-01T02:17:19.931Z,12.00
2018-07-01T02:18:19.909Z,16.00
2018-07-01T02:19:19.881Z,16.00
2018-07-01T02:20:19.857Z,24.00
2018-07-01T02:21:19.835Z,24.00
2018-07-01T02:22:19.811Z,28.00
2018-07-01T02:23:19.783Z,28.00
2018-07-01T02:24:19.756Z,32.00
2018-07-01T02:25:19.729Z,36.00
2018-07-01T02:26:19.703Z,40.00
2018-07-01T02:27:19.695Z,44.00
2018-07-01T02:28:19.656Z,52.00
2018-07-01T02:29:19.631Z,56.00
2018-07-01T02:30:19.605Z,64.00
2018-07-01T02:31:19.582Z,72.00
2018-07-01T02:32:19.559Z,76.00
2018-07-01T02:33:19.530Z,84.00
2018-07-01T02:34:20.111Z,96.00
2018-07-01T02:35:19.487Z,104.00
2018-07-01T02:36:19.454Z,116.00
2018-07-01T02:37:19.427Z,128.00
2018-07-01T02:38:19.416Z,140.00
2018-07-01T02:39:19.376Z,156.00
2018-07-01T02:40:19.352Z,172.00
2018-07-01T02:41:19.332Z,184.00
2018-07-01T02:42:19.513Z,200.00
2018-07-01T02:43:19.480Z,220.00
2018-07-01T02:44:19.454Z,240.00
2018-07-01T02:45:19.429Z,260.00
2018-07-01T02:46:19.410Z,284.00
2018-07-01T02:47:19.377Z,308.00
2018-07-01T02:48:19.150Z,336.00
2018-07-01T02:49:19.128Z,360.00
2018-07-01T02:50:19.114Z,388.00
2018-07-01T02:51:19.074Z,416.00
2018-07-01T02:52:19.056Z,448.00
2018-07-01T02:53:19.025Z,484.00
2018-07-01T02:54:19.005Z,516.00
2018-07-01T02:55:18.974Z,548.00
2018-07-01T02:56:18.950Z,588.00
2018-07-01T02:57:18.931Z,628.00
2018-07-01T02:58:18.897Z,668.00
2018-07-01T02:59:18.872Z,708.00
2018-07-01T03:00:18.846Z,752.00
2018-07-01T03:01:18.824Z,800.00
2018-07-01T03:02:18.798Z,844.00
2018-07-01T03:03:18.782Z,896.00
2018-07-01T03:04:18.747Z,940.00
2018-07-01T03:05:18.721Z,996.00
2018-07-01T03:06:18.717Z,1048.00
2018-07-01T03:07:18.673Z,1104.00
2018-07-01T03:08:18.654Z,1156.00
2018-07-01T03:09:18.821Z,1216.00
2018-07-01T03:10:18.593Z,1276.00
2018-07-01T03:11:18.568Z,1336.00
2018-07-01T03:12:18.746Z,1400.00
2018-07-01T03:13:18.520Z,1456.00
2018-07-01T03:15:00.848Z,1564.00
2018-07-01T03:16:00.622Z,1628.00
2018-07-01T03:17:00.595Z,1692.00
2018-07-01T03:18:00.567Z,1756.00
2018-07-01T03:19:00.542Z,1824.00
2018-07-01T03:20:00.516Z,1888.00
2018-07-01T03:21:00.491Z,1952.00
2018-07-01T03:22:00.470Z,2016.00
2018-07-01T03:23:00.443Z,2084.00
2018-07-01T03:24:00.417Z,2152.00
2018-07-01T03:25:00.391Z,2216.00
2018-07-01T03:26:00.365Z,2284.00
2018-07-01T03:27:00.342Z,2352.00
2018-07-01T03:28:00.312Z,2420.00
2018-07-01T03:29:00.290Z,2484.00
2018-07-01T03:30:00.264Z,2552.00
2018-07-01T03:31:00.239Z,2616.00
2018-07-01T03:32:00.213Z,2684.00
2018-07-01T03:33:00.188Z,2752.00
2018-07-01T03:34:00.164Z,2820.00
2018-07-01T03:35:00.146Z,2884.00
2018-07-01T03:36:00.117Z,2952.00
2018-07-01T03:37:00.089Z,3020.00
2018-07-01T03:38:00.061Z,3084.00
2018-07-01T03:39:00.036Z,3156.00
2018-07-01T03:40:00.016Z,3288.00
2018-07-01T03:40:59.985Z,3516.00
2018-07-01T03:41:59.963Z,3740.00
2018-07-01T03:42:59.937Z,3876.00
2018-07-01T03:43:59.911Z,3976.00
2018-07-01T03:44:59.886Z,4104.00
2018-07-01T03:45:59.860Z,4224.00
2018-07-01T03:46:59.845Z,4332.00
2018-07-01T03:47:59.813Z,4476.00
2018-07-01T03:48:59.784Z,4620.00
2018-07-01T03:49:59.758Z,4776.00
2018-07-01T03:50:59.733Z,4940.00
2018-07-01T03:51:59.708Z,5128.00
2018-07-01T03:52:59.684Z,5296.00
2018-07-01T03:53:59.662Z,5448.00
2018-07-01T03:54:59.637Z,5640.00
2018-07-01T03:55:59.616Z,5796.00
2018-07-01T03:56:59.587Z,5964.00
2018-07-01T03:57:59.561Z,6108.00
2018-07-01T03:58:59.536Z,6252.00
2018-07-01T03:59:59.514Z,6396.00
2018-07-01T04:00:59.489Z,6584.00
2018-07-01T04:01:59.466Z,6816.00
2018-07-01T04:02:59.460Z,6988.00
2018-07-01T04:03:59.415Z,7180.00
2018-07-01T04:04:59.592Z,7360.00
2018-07-01T04:05:59.572Z,7648.00
2018-07-01T04:06:59.547Z,7780.00
2018-07-01T04:07:59.527Z,7872.00
2018-07-01T04:08:59.297Z,7956.00
2018-07-01T04:09:59.271Z,8096.00
2018-07-01T04:10:59.248Z,8496.00
2018-07-01T04:11:59.225Z,8816.00
2018-07-01T04:12:59.201Z,8860.00
2018-07-01T04:13:59.178Z,8888.00
2018-07-01T04:14:59.158Z,9108.00
2018-07-01T04:15:59.129Z,9312.00
2018-07-01T04:16:59.115Z,9576.00
2018-07-01T04:17:59.082Z,9884.00
2018-07-01T04:18:59.057Z,10116.00
2018-07-01T04:19:59.033Z,10340.00
2018-07-01T04:20:59.011Z,10372.00
2018-07-01T04:21:58.989Z,10628.00
2018-07-01T04:22:58.967Z,10828.00
2018-07-01T04:23:58.945Z,11132.00
2018-07-01T04:24:58.919Z,11144.00
2018-07-01T04:25:58.895Z,11308.00
2018-07-01T04:26:58.872Z,11796.00
2018-07-01T04:27:58.847Z,12008.00
2018-07-01T04:28:58.825Z,12204.00
2018-07-01T04:29:58.806Z,12404.00
2018-07-01T04:30:58.868Z,12520.00
2018-07-01T04:31:58.758Z,12716.00
2018-07-01T04:32:58.734Z,12976.00
2018-07-01T04:33:58.718Z,13296.00
2018-07-01T04:34:58.691Z,13520.00
2018-07-01T04:35:58.667Z,13808.00
2018-07-01T04:36:58.647Z,14308.00
2018-07-01T04:37:58.620Z,14652.00
2018-07-01T04:38:58.597Z,14652.00
2018-07-01T04:39:58.574Z,15048.00
2018-07-01T04:40:58.551Z,15712.00
2018-07-01T04:41:58.533Z,16064.00
2018-07-01T04:42:58.508Z,16704.00
2018-07-01T04:43:58.489Z,17024.00
2018-07-01T04:44:58.464Z,17088.00
2018-07-01T04:45:58.445Z,17600.00
2018-07-01T04:46:58.621Z,18304.00
2018-07-01T04:47:58.395Z,18688.00
2018-07-01T04:48:58.372Z,18784.00
2018-07-01T04:49:58.356Z,18656.00
2018-07-01T04:50:58.328Z,19264.00
2018-07-01T04:51:58.509Z,19648.00
2018-07-01T04:52:58.283Z,19808.00
2018-07-01T04:53:58.263Z,19872.00
2018-07-01T04:54:58.266Z,20032.00
2018-07-01T04:55:58.223Z,20032.00
2018-07-01T04:56:58.196Z,20352.00
2018-07-01T04:57:58.173Z,20800.00
2018-07-01T04:58:58.151Z,20960.00
2018-07-01T04:59:58.128Z,21664.00
2018-07-01T05:00:58.109Z,21792.00
2018-07-01T05:01:58.092Z,22016.00
2018-07-01T05:02:58.066Z,22464.00
2018-07-01T05:03:58.043Z,23264.00
2018-07-01T05:04:58.020Z,23520.00
2018-07-01T05:05:58.000Z,23712.00
2018-07-01T05:06:57.981Z,24608.00
2018-07-01T05:07:58.161Z,25536.00
2018-07-01T05:08:57.937Z,25952.00
2018-07-01T05:09:57.909Z,25376.00
2018-07-01T05:10:57.889Z,25440.00
2018-07-01T05:11:57.870Z,25888.00
2018-07-01T05:12:58.046Z,26592.00
2018-07-01T05:13:57.827Z,27712.00
2018-07-01T05:20:35.237Z,30144.00
2018-07-01T05:21:35.008Z,29824.00
2018-07-01T05:22:34.986Z,28352.00
2018-07-01T05:23:34.963Z,29024.00
2018-07-01T05:24:34.942Z,30368.00
2018-07-01T05:25:34.920Z,30656.00
2018-07-01T05:26:36.000Z,31232.00
2018-07-01T05:59:11.972Z,42944.00
2018-07-01T06:00:11.750Z,43392.00
2018-07-01T06:02:36.238Z,38496.00
2018-07-01T06:03:38.633Z,47360.00
2018-07-01T06:04:36.193Z,45632.00
2018-07-01T06:05:36.171Z,38784.00
2018-07-01T06:06:35.949Z,38816.00
2018-07-01T06:08:20.710Z,42752.00
2018-07-01T06:09:18.266Z,39936.00
2018-07-01T06:10:18.044Z,40000.00
2018-07-01T06:11:18.224Z,42240.00
2018-07-01T06:12:18.204Z,43072.00
2018-07-01T06:13:18.587Z,43040.00
2018-07-01T06:14:18.164Z,43200.00
2018-07-01T06:15:18.152Z,38016.00
2018-07-01T06:16:18.129Z,40064.00
2018-07-01T06:17:17.908Z,19040.00
2018-07-01T06:18:17.888Z,21376.00
2018-07-01T06:19:18.067Z,20544.00
2018-07-01T06:20:17.845Z,28832.00
2018-07-01T06:21:18.028Z,34304.00
2018-07-01T06:22:17.806Z,34560.00
2018-07-01T06:23:17.786Z,36448.00
2018-07-01T06:24:17.767Z,35104.00
2018-07-01T06:25:17.950Z,32896.00
2018-07-01T06:27:42.246Z,28960.00
2018-07-01T06:28:42.226Z,28544.00
2018-07-01T06:29:42.206Z,38432.00
2018-07-01T06:30:42.194Z,47264.00
2018-07-01T06:31:42.574Z,50144.00
2018-07-01T06:32:42.163Z,47264.00
2018-07-01T06:33:42.126Z,44224.00
2018-07-01T06:34:41.908Z,44384.00
2018-07-01T06:35:41.892Z,47392.00
2018-07-01T06:36:42.075Z,48384.00
2018-07-01T06:37:42.052Z,51488.00
2018-07-01T06:38:42.033Z,52640.00
2018-07-01T06:39:42.014Z,54016.00
2018-07-01T06:40:41.793Z,54304.00
2018-07-01T06:42:24.134Z,53120.00
2018-07-01T06:43:23.913Z,54336.00
2018-07-01T06:44:23.899Z,56448.00
2018-07-01T06:45:23.875Z,59552.00
2018-07-01T06:46:24.059Z,60864.00
2018-07-01T06:47:24.039Z,56384.00
2018-07-01T06:48:23.820Z,56064.00
2018-07-01T06:49:23.845Z,56832.00
2018-07-01T06:50:23.785Z,60000.00
2018-07-01T06:51:23.969Z,62944.00
2018-07-01T06:52:23.949Z,58848.00
2018-07-01T06:53:23.933Z,60032.00
2018-07-01T06:54:23.912Z,62304.00
2018-07-01T06:55:23.696Z,62848.00
2018-07-01T06:56:24.942Z,65056.00
2018-07-01T06:57:23.659Z,65600.00
2018-07-01T06:58:23.841Z,61760.00
2018-07-01T06:59:23.619Z,61856.00
2018-07-01T07:00:23.602Z,61824.00
2018-07-01T07:01:23.587Z,63552.00
2018-07-01T07:02:23.595Z,64640.00
2018-07-01T07:03:23.551Z,65216.00
2018-07-01T07:04:23.533Z,65856.00
2018-07-01T07:05:23.513Z,63552.00
2018-07-01T07:06:23.496Z,66720.00
2018-07-01T07:07:23.680Z,72480.00
2018-07-01T07:08:23.468Z,74176.00
2018-07-01T07:09:23.447Z,74656.00
2018-07-01T07:10:23.427Z,73824.00
2018-07-01T07:11:23.409Z,72448.00
2018-07-01T07:12:23.393Z,70048.00
2018-07-01T07:13:23.577Z,72096.00
2018-07-01T07:14:23.363Z,73568.00
2018-07-01T07:15:23.543Z,73824.00
2018-07-01T07:16:23.602Z,76480.00
2018-07-01T07:17:23.305Z,79200.00
2018-07-01T07:18:23.288Z,78272.00
2018-07-01T07:19:23.270Z,74336.00
2018-07-01T07:20:23.456Z,75200.00
2018-07-01T07:21:23.441Z,80064.00
2018-07-01T07:23:05.582Z,81568.00
2018-07-01T07:24:05.363Z,83136.00
2018-07-01T07:25:05.550Z,56160.00
2018-07-01T07:26:05.330Z,82656.00
2018-07-01T07:28:29.831Z,90944.00
2018-07-01T07:30:54.134Z,90624.00
2018-07-01T07:31:53.924Z,27360.00
2018-07-01T07:32:53.894Z,29216.00
2018-07-01T07:33:53.877Z,83488.00
2018-07-01T07:34:53.860Z,100736.00
2018-07-01T07:35:53.847Z,100352.00
2018-07-01T07:36:54.030Z,93152.00
2018-07-01T07:37:54.015Z,92480.00
2018-07-01T07:38:53.999Z,94080.00
2018-07-01T07:39:53.982Z,50688.00
2018-07-01T07:40:53.972Z,67936.00
2018-07-01T07:41:53.955Z,34816.00
2018-07-01T07:43:36.093Z,39552.00
2018-07-01T07:44:35.875Z,76224.00
2018-07-01T07:45:37.071Z,101600.00
2018-07-01T07:46:35.843Z,98880.00
2018-07-01T07:47:35.826Z,92160.00
2018-07-01T07:48:35.807Z,92032.00
2018-07-01T07:49:35.793Z,89792.00
2018-07-01T07:50:35.777Z,87648.00
2018-07-01T07:51:35.967Z,83776.00
2018-07-01T07:52:35.951Z,80384.00
2018-07-01T07:53:35.934Z,81728.00
2018-07-01T07:54:35.915Z,83296.00
2018-07-01T07:55:35.899Z,82880.00
2018-07-01T07:56:35.883Z,83008.00
2018-07-01T07:57:35.667Z,84160.00
2018-07-01T07:58:35.650Z,82048.00
2018-07-01T07:59:36.450Z,81632.00
2018-07-01T08:00:35.821Z,81408.00
2018-07-01T08:04:27.065Z,85248.00
2018-07-01T08:05:24.430Z,85184.00
2018-07-01T08:06:24.411Z,82688.00
2018-07-01T08:07:24.448Z,82208.00
2018-07-01T08:08:24.193Z,81280.00
2018-07-01T08:09:24.366Z,80544.00
2018-07-01T08:10:24.358Z,79616.00
2018-07-01T08:11:24.338Z,75424.00
2018-07-01T08:12:24.324Z,79584.00
2018-07-01T08:13:24.308Z,84800.00
2018-07-01T08:14:24.091Z,79840.00
2018-07-01T08:15:25.090Z,79648.00
2018-07-01T08:16:24.062Z,85280.00
2018-07-01T08:17:24.248Z,82944.00
2018-07-01T08:18:24.234Z,83648.00
2018-07-01T08:19:24.826Z,87936.00
2018-07-01T08:20:24.209Z,86688.00
2018-07-01T08:21:23.993Z,85568.00
2018-07-01T08:22:24.185Z,85792.00
2018-07-01T08:23:23.968Z,86080.00
2018-07-01T08:24:24.163Z,86304.00
2018-07-01T08:25:24.137Z,87328.00
2018-07-01T08:26:23.923Z,88288.00
2018-07-01T08:27:24.108Z,90016.00
2018-07-01T08:28:26.925Z,89504.00
2018-07-01T08:29:23.878Z,86240.00
2018-07-01T08:30:24.071Z,87584.00
2018-07-01T08:31:24.057Z,88928.00
2018-07-01T08:32:24.042Z,87584.00
2018-07-01T08:33:26.649Z,85184.00
2018-07-01T08:34:24.015Z,87264.00
2018-07-01T08:35:24.002Z,89248.00
2018-07-01T08:36:23.791Z,88192.00
2018-07-01T08:37:23.777Z,88992.00
2018-07-01T08:38:23.962Z,90752.00
2018-07-01T08:39:23.744Z,89152.00
2018-07-01T08:40:23.934Z,85888.00
2018-07-01T08:41:23.919Z,89056.00
2018-07-01T08:42:23.906Z,92640.00
2018-07-01T08:43:23.893Z,92192.00
2018-07-01T08:44:23.683Z,93664.00
2018-07-01T08:45:23.665Z,95968.00
2018-07-01T08:46:23.689Z,96192.00
2018-07-01T08:47:23.637Z,97856.00
2018-07-01T08:48:23.622Z,99872.00
2018-07-01T08:49:23.610Z,97664.00
2018-07-01T08:50:23.596Z,95008.00
2018-07-01T08:51:23.585Z,95072.00
2018-07-01T08:52:23.841Z,96320.00
2018-07-01T08:53:23.556Z,94944.00
2018-07-01T08:54:23.542Z,94816.00
2018-07-01T08:55:23.532Z,95360.00
2018-07-01T08:56:23.518Z,97216.00
2018-07-01T08:57:23.707Z,98272.00
2018-07-01T08:58:23.694Z,99680.00
2018-07-01T08:59:23.681Z,100224.00
2018-07-01T09:00:24.476Z,97088.00
2018-07-01T09:01:23.653Z,95392.00
2018-07-01T09:02:23.639Z,96640.00
2018-07-01T09:03:23.432Z,100544.00
2018-07-01T09:04:23.617Z,100224.00
2018-07-01T09:05:23.805Z,97248.00
2018-07-01T09:06:23.591Z,99904.00
2018-07-01T09:07:23.576Z,99232.00
2018-07-01T09:08:23.570Z,95296.00
2018-07-01T09:09:23.552Z,96544.00
2018-07-01T09:10:23.538Z,99904.00
2018-07-01T09:11:23.529Z,104096.00
2018-07-01T09:12:26.138Z,102624.00
2018-07-01T09:13:23.308Z,100288.00
2018-07-01T09:14:23.489Z,103264.00
2018-07-01T09:15:23.272Z,105120.00
2018-07-01T09:16:23.261Z,105536.00
2018-07-01T09:17:23.449Z,103968.00
2018-07-01T09:18:26.064Z,101600.00
2018-07-01T09:19:23.429Z,101824.00
2018-07-01T09:21:05.574Z,100800.00
2018-07-01T09:22:50.358Z,101536.00
2018-07-01T09:23:47.712Z,100032.00
2018-07-01T09:24:51.129Z,100960.00
2018-07-01T09:25:47.684Z,104992.00
2018-07-01T09:26:47.672Z,105248.00
2018-07-01T09:27:47.659Z,105312.00
2018-07-01T09:28:47.651Z,101472.00
2018-07-01T09:29:47.636Z,102656.00
2018-07-01T09:30:47.425Z,106272.00
2018-07-01T09:31:47.411Z,106720.00
2018-07-01T09:32:47.398Z,105024.00
2018-07-01T09:33:47.387Z,100416.00
2018-07-01T09:34:47.397Z,99616.00
2018-07-01T09:35:47.363Z,104704.00
2018-07-01T09:36:47.350Z,107328.00
2018-07-01T09:37:47.339Z,103136.00
2018-07-01T09:38:47.328Z,101216.00
2018-07-01T09:39:47.321Z,103616.00
2018-07-01T09:40:47.304Z,104992.00
2018-07-01T09:41:47.295Z,105696.00
2018-07-01T09:42:47.283Z,104896.00
2018-07-01T09:43:47.271Z,103552.00
2018-07-01T09:44:47.260Z,102944.00
2018-07-01T09:45:47.248Z,102208.00
2018-07-01T09:46:47.239Z,101504.00
2018-07-01T09:47:47.227Z,100384.00
2018-07-01T09:48:47.212Z,99744.00
2018-07-01T09:49:47.203Z,99296.00
2018-07-01T09:50:47.249Z,100640.00
2018-07-01T09:51:47.181Z,101440.00
2018-07-01T09:52:47.169Z,101440.00
2018-07-01T09:53:47.156Z,102944.00
2018-07-01T09:54:47.147Z,104480.00
2018-07-01T09:55:47.138Z,102400.00
2018-07-01T09:56:47.121Z,102944.00
2018-07-01T09:57:47.110Z,103712.00
2018-07-01T09:58:47.099Z,104704.00
2018-07-01T09:59:47.087Z,104288.00
2018-07-01T10:00:47.075Z,103744.00
2018-07-01T10:01:47.065Z,105792.00
2018-07-01T10:02:47.061Z,106272.00
2018-07-01T10:03:47.044Z,103968.00
2018-07-01T10:04:47.032Z,105920.00
2018-07-01T10:05:47.020Z,105856.00
2018-07-01T10:06:47.012Z,100704.00
2018-07-01T10:07:46.996Z,98528.00
2018-07-01T10:08:46.992Z,102912.00
2018-07-01T10:09:46.974Z,102784.00
2018-07-01T10:10:46.967Z,101824.00
2018-07-01T10:11:46.953Z,104320.00
2018-07-01T10:12:46.943Z,106016.00
2018-07-01T10:13:46.935Z,106080.00
2018-07-01T10:14:46.920Z,105536.00
2018-07-01T10:15:47.921Z,98496.00
2018-07-01T10:16:46.899Z,90592.00
2018-07-01T10:17:46.886Z,97568.00
2018-07-01T10:18:47.140Z,108192.00
2018-07-01T10:19:47.066Z,108704.00
2018-07-01T10:20:47.055Z,110400.00
2018-07-01T10:21:46.853Z,111072.00
2018-07-01T10:22:46.833Z,104448.00
2018-07-01T10:23:46.825Z,105216.00
2018-07-01T10:24:46.815Z,107424.00
2018-07-01T10:25:46.798Z,108384.00
2018-07-01T10:26:46.787Z,110240.00
2018-07-01T10:27:46.781Z,108544.00
2018-07-01T10:28:46.775Z,107648.00
2018-07-01T10:29:46.756Z,106624.00
2018-07-01T10:30:46.948Z,106848.00
2018-07-01T10:31:46.734Z,101856.00
2018-07-01T10:32:46.724Z,105088.00
2018-07-01T10:33:46.710Z,112960.00
2018-07-01T10:34:46.699Z,114240.00
2018-07-01T10:35:46.689Z,112288.00
2018-07-01T10:36:46.677Z,112672.00
2018-07-01T10:37:46.666Z,113920.00
2018-07-01T10:38:46.657Z,111296.00
2018-07-01T10:39:46.645Z,106912.00
2018-07-01T10:40:46.683Z,107328.00
2018-07-01T10:41:46.624Z,108096.00
2018-07-01T10:42:46.617Z,109472.00
2018-07-01T10:43:46.601Z,111520.00
2018-07-01T10:44:46.602Z,111456.00
2018-07-01T10:45:46.628Z,111968.00
2018-07-01T10:46:46.567Z,112736.00
2018-07-01T10:47:46.559Z,115808.00
2018-07-01T10:48:46.550Z,34752.00
2018-07-01T10:49:46.535Z,24544.00
2018-07-01T10:50:46.525Z,113728.00
2018-07-01T10:51:46.643Z,111872.00
2018-07-01T10:52:46.501Z,113344.00
2018-07-01T10:53:46.506Z,114976.00
2018-07-01T10:54:46.480Z,113600.00
2018-07-01T10:55:46.466Z,112000.00
2018-07-01T10:56:46.454Z,103680.00
2018-07-01T10:57:46.447Z,109824.00
2018-07-01T10:58:46.436Z,112448.00
2018-07-01T10:59:46.421Z,113248.00
2018-07-01T11:00:46.413Z,114688.00
2018-07-01T11:01:46.403Z,114400.00
2018-07-01T11:02:46.389Z,115936.00
2018-07-01T11:03:46.377Z,117600.00
2018-07-01T11:04:46.371Z,116384.00
2018-07-01T11:05:46.352Z,114176.00
2018-07-01T11:06:46.343Z,114528.00
2018-07-01T11:07:46.341Z,115264.00
2018-07-01T11:08:46.319Z,113568.00
2018-07-01T11:09:46.309Z,112992.00
2018-07-01T11:10:46.301Z,113760.00
2018-07-01T11:11:46.342Z,114016.00
2018-07-01T11:12:46.276Z,113024.00
2018-07-01T11:13:46.268Z,112800.00
2018-07-01T11:14:46.254Z,113248.00
2018-07-01T11:15:46.244Z,111488.00
2018-07-01T11:16:46.239Z,113216.00
2018-07-01T11:17:46.221Z,114848.00
2018-07-01T11:18:46.210Z,111424.00
2018-07-01T11:19:46.200Z,111424.00
2018-07-01T11:20:46.188Z,117280.00
2018-07-01T11:21:46.186Z,118560.00
2018-07-01T11:22:46.169Z,114816.00
2018-07-01T11:23:46.158Z,114240.00
2018-07-01T11:24:46.148Z,115936.00
2018-07-01T11:25:46.134Z,118080.00
2018-07-01T11:26:46.244Z,116896.00
2018-07-01T11:27:46.112Z,117632.00
2018-07-01T11:28:46.101Z,119712.00
2018-07-01T11:29:46.089Z,116160.00
2018-07-01T11:30:46.081Z,114304.00
2018-07-01T11:31:46.067Z,119104.00
2018-07-01T11:32:46.160Z,121088.00
2018-07-01T11:33:46.047Z,120800.00
2018-07-01T11:34:46.036Z,119840.00
2018-07-01T11:35:46.023Z,43712.00
2018-07-01T11:36:46.013Z,44544.00
2018-07-01T11:37:46.200Z,27680.00
2018-07-01T11:38:45.988Z,24416.00
2018-07-01T11:39:45.975Z,23200.00
2018-07-01T11:40:46.165Z,24672.00
2018-07-01T11:41:46.157Z,116352.00
2018-07-01T11:42:45.940Z,119648.00
2018-07-01T11:43:45.926Z,25728.00
2018-07-01T11:44:46.118Z,77664.00
2018-07-01T11:45:45.901Z,122816.00
2018-07-01T11:46:45.890Z,120288.00
2018-07-01T11:47:45.877Z,120160.00
2018-07-01T11:48:45.862Z,123744.00
2018-07-01T11:49:45.850Z,70176.00
2018-07-01T11:50:45.837Z,110528.00
2018-07-01T11:51:45.825Z,119680.00
2018-07-01T11:52:45.813Z,129248.00
2018-07-01T11:53:45.803Z,118176.00
2018-07-01T11:54:45.791Z,80480.00
2018-07-01T11:55:45.788Z,82656.00
2018-07-01T11:56:45.766Z,108256.00
2018-07-01T11:57:45.753Z,114016.00
2018-07-01T11:58:45.741Z,106080.00
2018-07-01T11:59:45.732Z,100000.00
2018-07-01T12:00:45.725Z,101024.00
2018-07-01T12:01:45.767Z,103584.00
2018-07-01T12:02:45.695Z,105312.00
2018-07-01T12:03:45.682Z,112416.00
2018-07-01T12:05:02.951Z,115520.00
2018-07-01T12:05:45.665Z,111264.00
2018-07-01T12:06:45.649Z,104064.00
2018-07-01T12:07:45.636Z,98880.00
2018-07-01T12:08:45.629Z,98592.00
2018-07-01T12:09:45.613Z,88896.00
2018-07-01T12:10:49.032Z,97504.00
2018-07-01T12:12:27.957Z,114112.00
2018-07-01T12:13:27.741Z,119776.00
2018-07-01T12:14:27.729Z,124000.00
2018-07-01T12:15:27.720Z,122624.00
2018-07-01T12:16:27.706Z,122976.00
2018-07-01T12:17:30.924Z,122816.00
2018-07-01T12:18:27.691Z,116896.00
2018-07-01T12:19:27.675Z,106048.00
2018-07-01T12:20:27.665Z,105984.00
2018-07-01T12:21:27.653Z,114336.00
2018-07-01T12:22:27.644Z,115008.00
2018-07-01T12:23:27.638Z,108672.00
2018-07-01T12:24:27.619Z,110688.00
2018-07-01T12:25:27.811Z,116064.00
2018-07-01T12:26:27.597Z,115680.00
2018-07-01T12:27:27.586Z,114144.00
2018-07-01T12:28:27.575Z,112128.00
2018-07-01T12:29:27.563Z,111872.00
2018-07-01T12:30:27.552Z,114816.00
2018-07-01T12:31:27.545Z,114304.00
2018-07-01T12:32:27.532Z,111424.00
2018-07-01T12:33:27.519Z,109536.00
2018-07-01T12:34:27.510Z,105632.00
2018-07-01T12:35:27.495Z,67584.00
2018-07-01T12:36:27.493Z,78368.00
2018-07-01T12:37:27.472Z,97184.00
2018-07-01T12:38:27.460Z,93920.00
2018-07-01T12:39:27.451Z,89280.00
2018-07-01T12:40:27.449Z,85280.00
2018-07-01T12:41:27.429Z,84512.00
2018-07-01T12:42:27.522Z,88288.00
2018-07-01T12:43:27.405Z,87328.00
2018-07-01T12:44:27.394Z,90368.00
2018-07-01T12:45:27.381Z,96608.00
2018-07-01T12:46:27.371Z,97024.00
2018-07-01T12:47:27.357Z,101184.00
2018-07-01T12:48:27.345Z,104800.00
2018-07-01T12:49:27.334Z,104736.00
2018-07-01T12:50:27.323Z,103552.00
2018-07-01T12:51:27.315Z,106112.00